Terminal Aerodrome Forecast
Issued by NWS

Home | Current Version | Previous Version | Text Only | Print | Product List | Glossary On
Versions: 1 2 3 4 5 6 7 8 9 10 11 12 13 14 15 16 17 18 19 20 21 22 23 24 25 26
000
FTUS43 KICT 061843 AAA
TAFRSL
TAF AMD
KRSL 061843Z 0619/0718 18022G32KT P6SM VCTS SCT025CB BKN050
      TEMPO 0619/0623 VRB25G40KT 2SM +TSRA OVC020CB
     FM062300 18026G35KT P6SM VCTS SCT035CB BKN100
     FM070700 18023G32KT P6SM BKN010=

USA.gov is the U.S. government's official web portal to all federal, state and local government web resources and services.